createdAt,value
2022-08-28T00:00:42.548Z,11.05
2022-08-28T00:03:13.402Z,10.75
2022-08-28T00:05:46.115Z,10.17
2022-08-28T00:08:19.472Z,11.27
2022-08-28T00:10:50.100Z,9.77
2022-08-28T00:13:22.060Z,11.00
2022-08-28T00:15:54.631Z,10.95
2022-08-28T00:18:25.744Z,11.15
2022-08-28T00:20:56.571Z,11.65
2022-08-28T00:23:42.196Z,11.43
2022-08-28T00:26:33.466Z,12.23
2022-08-28T00:29:01.157Z,11.43
2022-08-28T00:31:31.523Z,12.20
2022-08-28T00:34:03.087Z,13.20
2022-08-28T00:36:33.953Z,12.15
2022-08-28T00:39:07.972Z,10.98
2022-08-28T00:41:41.276Z,11.10
2022-08-28T00:44:15.823Z,12.20
2022-08-28T00:46:46.947Z,12.35
2022-08-28T00:49:19.224Z,11.40
2022-08-28T00:52:02.654Z,13.05
2022-08-28T00:54:36.811Z,11.52
2022-08-28T00:57:09.484Z,13.23
2022-08-28T00:59:40.407Z,12.75
2022-08-28T01:02:11.546Z,13.48
2022-08-28T01:04:42.042Z,12.13
2022-08-28T01:07:15.042Z,13.68
2022-08-28T01:09:49.180Z,13.13
2022-08-28T01:12:24.340Z,14.00
2022-08-28T01:14:58.600Z,13.55
2022-08-28T01:17:31.370Z,13.63
2022-08-28T01:20:04.991Z,13.55
2022-08-28T01:22:39.728Z,14.00
2022-08-28T01:25:14.642Z,13.15
2022-08-28T01:27:45.512Z,13.60
2022-08-28T01:30:17.807Z,12.85
2022-08-28T01:32:50.243Z,13.10
2022-08-28T01:35:22.551Z,14.18
2022-08-28T01:37:52.854Z,13.38
2022-08-28T01:40:30.186Z,12.63
2022-08-28T01:43:09.264Z,13.70
2022-08-28T01:45:39.753Z,12.48
2022-08-28T01:48:10.735Z,13.13
2022-08-28T01:50:41.415Z,13.80
2022-08-28T01:53:12.918Z,13.52
2022-08-28T01:55:46.295Z,13.52
2022-08-28T01:58:16.433Z,12.63
2022-08-28T02:00:46.891Z,12.27
2022-08-28T02:03:17.176Z,12.68
2022-08-28T02:05:47.604Z,11.93
2022-08-28T02:08:18.348Z,14.13
2022-08-28T02:10:53.050Z,13.43
2022-08-28T02:13:23.264Z,13.75
2022-08-28T02:15:56.100Z,13.15
2022-08-28T02:18:26.156Z,13.13
2022-08-28T02:20:56.150Z,13.07
2022-08-28T02:23:26.144Z,13.43
2022-08-28T02:25:59.045Z,14.02
2022-08-28T02:28:29.380Z,15.00
2022-08-28T02:30:59.529Z,14.05
2022-08-28T02:33:29.587Z,14.57
2022-08-28T02:35:59.639Z,14.27
2022-08-28T02:38:29.992Z,14.02
2022-08-28T02:41:04.395Z,13.38
2022-08-28T02:43:34.799Z,15.88
2022-08-28T02:46:05.098Z,15.55
2022-08-28T02:48:36.503Z,13.73
2022-08-28T02:51:08.458Z,14.82
2022-08-28T02:53:39.373Z,15.05
2022-08-28T02:56:12.755Z,14.73
2022-08-28T02:58:43.441Z,15.38
2022-08-28T03:01:15.098Z,15.07
2022-08-28T03:03:45.683Z,15.43
2022-08-28T03:06:16.368Z,16.63
2022-08-28T03:08:47.012Z,15.05
2022-08-28T03:11:19.935Z,16.15
2022-08-28T03:13:50.250Z,15.15
2022-08-28T03:16:20.664Z,15.98
2022-08-28T03:18:51.036Z,15.48
2022-08-28T03:21:21.473Z,15.82
2022-08-28T03:23:49.175Z,15.52
2022-08-28T03:26:24.132Z,14.50
2022-08-28T03:28:57.679Z,15.05
2022-08-28T03:31:33.836Z,14.63
2022-08-28T03:34:04.755Z,15.82
2022-08-28T03:36:35.219Z,15.75
2022-08-28T03:39:08.416Z,13.88
2022-08-28T03:41:41.312Z,13.68
2022-08-28T03:44:11.680Z,13.48
2022-08-28T03:46:42.869Z,14.32
2022-08-28T03:49:13.554Z,13.70
2022-08-28T03:51:44.174Z,13.15
2022-08-28T03:54:14.424Z,14.23
2022-08-28T03:56:47.510Z,14.57
2022-08-28T03:59:17.754Z,13.57
2022-08-28T04:01:48.091Z,14.15
2022-08-28T04:04:18.405Z,13.85
2022-08-28T04:06:48.708Z,14.43
2022-08-28T04:09:19.033Z,14.25
2022-08-28T04:11:52.850Z,15.13
2022-08-28T04:14:23.163Z,12.73
2022-08-28T04:16:53.544Z,14.35
2022-08-28T04:19:23.843Z,14.20
2022-08-28T04:21:54.076Z,14.70
2022-08-28T04:24:25.118Z,15.27
2022-08-28T04:26:57.960Z,14.20
2022-08-28T04:29:28.255Z,14.25
2022-08-28T04:31:58.767Z,14.98
2022-08-28T04:34:29.104Z,15.18
2022-08-28T04:36:59.420Z,15.13
2022-08-28T04:39:29.703Z,14.80
2022-08-28T04:42:02.862Z,14.30
2022-08-28T04:44:33.130Z,15.20
2022-08-28T04:47:03.465Z,14.35
2022-08-28T04:49:36.575Z,15.75
2022-08-28T04:52:07.280Z,14.32
2022-08-28T04:54:37.932Z,12.82
2022-08-28T04:57:10.961Z,14.88
2022-08-28T04:59:42.052Z,15.32
2022-08-28T05:02:12.387Z,13.77
2022-08-28T05:04:42.704Z,13.85
2022-08-28T05:07:12.988Z,14.70
2022-08-28T05:09:43.283Z,13.27
2022-08-28T05:12:17.464Z,14.45
2022-08-28T05:14:47.986Z,14.07
2022-08-28T05:17:18.676Z,14.43
2022-08-28T05:19:48.936Z,13.93
2022-08-28T05:22:19.791Z,13.20
2022-08-28T05:24:50.121Z,14.38
2022-08-28T05:27:23.898Z,14.25
2022-08-28T05:29:57.250Z,14.55
2022-08-28T05:32:30.124Z,13.15
2022-08-28T05:35:00.416Z,14.25
2022-08-28T05:37:30.672Z,13.63
2022-08-28T05:40:00.995Z,13.60
2022-08-28T05:42:38.807Z,12.98
2022-08-28T05:45:10.063Z,13.40
2022-08-28T05:47:40.343Z,14.05
2022-08-28T05:50:13.622Z,13.38
2022-08-28T05:52:44.383Z,12.40
2022-08-28T05:55:15.839Z,12.68
2022-08-28T05:57:48.802Z,13.18
2022-08-28T06:00:19.219Z,12.18
2022-08-28T06:02:50.192Z,11.55
2022-08-28T06:05:20.976Z,11.95
2022-08-28T06:07:52.573Z,12.32
2022-08-28T06:10:22.836Z,12.90
2022-08-28T06:12:55.843Z,12.07
2022-08-28T06:15:27.020Z,12.43
2022-08-28T06:17:57.346Z,12.48
2022-08-28T06:20:27.961Z,11.05
2022-08-28T06:22:58.955Z,11.82
2022-08-28T06:25:29.218Z,11.02
2022-08-28T06:28:02.073Z,11.18
2022-08-28T06:30:32.359Z,11.27
2022-08-28T06:33:02.612Z,11.27
2022-08-28T06:35:34.423Z,10.98
2022-08-28T06:38:04.689Z,10.02
2022-08-28T06:40:34.970Z,10.80
2022-08-28T06:43:07.817Z,11.35
2022-08-28T06:45:38.513Z,10.23
2022-08-28T06:48:08.962Z,9.80
2022-08-28T06:50:42.847Z,10.55
2022-08-28T06:55:43.969Z,9.38
2022-08-28T06:58:16.929Z,10.60
2022-08-28T07:00:47.179Z,10.05
2022-08-28T07:03:17.725Z,9.85
2022-08-28T07:05:48.066Z,9.63
2022-08-28T07:08:18.343Z,8.88
2022-08-28T07:10:48.655Z,9.38
2022-08-28T07:13:21.497Z,8.75
2022-08-28T07:15:51.899Z,8.48
2022-08-28T07:18:22.198Z,7.90
2022-08-28T07:20:58.807Z,8.65
2022-08-28T07:23:29.116Z,8.25
2022-08-28T07:25:59.500Z,7.50
2022-08-28T07:28:32.446Z,7.82
2022-08-28T07:31:03.706Z,8.13
2022-08-28T07:33:35.022Z,8.05
2022-08-28T07:36:05.818Z,7.32
2022-08-28T07:38:36.142Z,7.43
2022-08-28T07:41:06.595Z,7.00
2022-08-28T07:43:51.920Z,7.22
2022-08-28T07:46:22.298Z,7.18
2022-08-28T07:48:53.910Z,6.65
2022-08-28T07:51:24.395Z,6.35
2022-08-28T07:53:55.064Z,5.80
2022-08-28T07:56:25.681Z,5.72
2022-08-28T07:58:59.031Z,6.10
2022-08-28T08:01:31.598Z,6.45
2022-08-28T08:04:02.400Z,5.05
2022-08-28T08:06:34.388Z,5.93
2022-08-28T08:09:04.876Z,6.10
2022-08-28T08:11:35.442Z,5.63
2022-08-28T08:14:08.530Z,6.32
2022-08-28T08:16:40.633Z,5.57
2022-08-28T08:19:14.146Z,5.50
2022-08-28T08:21:44.931Z,5.75
2022-08-28T08:24:20.897Z,6.05
2022-08-28T08:26:59.229Z,6.10
2022-08-28T08:29:35.695Z,5.25
2022-08-28T08:32:07.971Z,5.28
2022-08-28T08:34:40.471Z,5.25
2022-08-28T08:37:12.782Z,5.45
2022-08-28T08:39:44.313Z,5.15
2022-08-28T08:42:24.128Z,5.18
2022-08-28T08:44:58.074Z,5.35
2022-08-28T08:47:35.446Z,5.82
2022-08-28T08:50:07.572Z,4.75
2022-08-28T08:52:43.359Z,4.68
2022-08-28T08:55:24.908Z,3.72
2022-08-28T08:58:02.260Z,3.83
2022-08-28T09:00:39.404Z,4.85
2022-08-28T09:03:16.183Z,4.82
2022-08-28T09:05:50.478Z,4.47
2022-08-28T09:08:29.739Z,4.15
2022-08-28T09:11:05.115Z,4.95
2022-08-28T09:13:38.779Z,3.92
2022-08-28T09:16:20.173Z,4.57
2022-08-28T09:18:50.894Z,4.60
2022-08-28T09:21:31.532Z,4.63
2022-08-28T09:24:05.723Z,4.43
2022-08-28T09:26:42.572Z,4.43
2022-08-28T09:29:18.787Z,3.92
2022-08-28T09:31:51.790Z,4.43
2022-08-28T09:34:25.858Z,4.15
2022-08-28T09:36:56.441Z,4.55
2022-08-28T09:39:27.598Z,3.80
2022-08-28T09:42:18.951Z,4.18
2022-08-28T09:44:59.756Z,4.53
2022-08-28T09:47:46.177Z,3.60
2022-08-28T09:50:31.338Z,3.38
2022-08-28T09:53:16.152Z,3.60
2022-08-28T09:56:00.562Z,3.47
2022-08-28T09:58:35.115Z,3.63
2022-08-28T10:01:14.152Z,3.67
2022-08-28T10:03:52.470Z,3.60
2022-08-28T10:06:28.649Z,3.80
2022-08-28T10:09:07.616Z,3.55
2022-08-28T10:11:47.133Z,3.78
2022-08-28T10:14:26.372Z,3.17
2022-08-28T10:17:00.899Z,3.45
2022-08-28T10:19:40.685Z,3.38
2022-08-28T10:22:22.560Z,3.55
2022-08-28T10:24:58.420Z,3.08
2022-08-28T10:27:38.794Z,3.22
2022-08-28T10:30:13.392Z,3.40
2022-08-28T10:33:01.044Z,3.78
2022-08-28T10:35:38.966Z,3.88
2022-08-28T10:38:16.245Z,2.97
2022-08-28T10:40:53.130Z,2.88
2022-08-28T10:43:26.842Z,3.72
2022-08-28T10:45:57.584Z,3.58
2022-08-28T10:48:32.164Z,3.20
2022-08-28T10:51:08.751Z,3.45
2022-08-28T10:53:41.241Z,2.83
2022-08-28T10:56:13.883Z,3.20
2022-08-28T10:58:44.435Z,2.97
2022-08-28T11:01:17.412Z,2.75
2022-08-28T11:03:49.975Z,3.10
2022-08-28T11:06:28.667Z,3.40
2022-08-28T11:09:20.715Z,3.20
2022-08-28T11:11:52.270Z,3.38
2022-08-28T11:14:27.647Z,3.38
2022-08-28T11:16:58.831Z,2.92
2022-08-28T11:19:50.370Z,3.13
2022-08-28T11:22:26.975Z,2.97
2022-08-28T11:25:04.368Z,2.80
2022-08-28T11:27:38.779Z,3.00
2022-08-28T11:30:26.957Z,3.30
2022-08-28T11:33:04.916Z,3.15
2022-08-28T11:35:46.478Z,3.08
2022-08-28T11:38:55.451Z,2.70
2022-08-28T11:41:27.552Z,3.17
2022-08-28T11:44:26.973Z,2.88
2022-08-28T11:46:59.464Z,2.72
2022-08-28T11:49:44.875Z,3.03
2022-08-28T11:52:29.958Z,2.75
2022-08-28T11:55:08.990Z,2.67
2022-08-28T11:57:56.318Z,2.72
2022-08-28T12:00:35.743Z,3.25
2022-08-28T12:03:13.350Z,2.85
2022-08-28T12:05:51.476Z,2.50
2022-08-28T12:08:36.559Z,2.88
2022-08-28T12:11:09.522Z,3.08
2022-08-28T12:13:48.535Z,3.08
2022-08-28T12:16:19.373Z,2.85
2022-08-28T12:19:03.787Z,2.72
2022-08-28T12:21:34.484Z,2.70
2022-08-28T12:24:09.025Z,2.90
2022-08-28T12:26:50.423Z,2.47
2022-08-28T12:29:27.186Z,2.88
2022-08-28T12:32:18.755Z,2.63
2022-08-28T12:35:12.486Z,3.38
2022-08-28T12:37:51.985Z,3.08
2022-08-28T12:40:25.402Z,3.63
2022-08-28T12:43:00.293Z,3.25
2022-08-28T12:45:31.802Z,3.10
2022-08-28T12:48:05.854Z,3.38
2022-08-28T12:50:39.336Z,2.88
2022-08-28T12:53:10.266Z,3.33
2022-08-28T12:55:41.434Z,3.22
2022-08-28T12:58:30.658Z,3.33
2022-08-28T13:01:03.036Z,3.03
2022-08-28T13:03:33.592Z,2.80
2022-08-28T13:06:06.418Z,3.08
2022-08-28T13:08:37.431Z,3.45
2022-08-28T13:11:08.039Z,3.17
2022-08-28T13:13:47.314Z,3.17
2022-08-28T13:16:38.045Z,3.40
2022-08-28T13:19:15.989Z,2.97
2022-08-28T13:22:00.673Z,3.63
2022-08-28T13:24:45.814Z,3.15
2022-08-28T13:27:28.321Z,3.55
2022-08-28T13:30:06.717Z,3.35
2022-08-28T13:32:39.089Z,3.20
2022-08-28T13:35:24.230Z,3.15
2022-08-28T13:37:55.775Z,2.90
2022-08-28T13:40:56.425Z,3.45
2022-08-28T13:43:18.915Z,2.97
2022-08-28T13:45:52.337Z,2.67
2022-08-28T13:48:24.003Z,2.95
2022-08-28T13:50:59.315Z,3.50
2022-08-28T13:53:29.339Z,2.53
2022-08-28T13:56:01.311Z,3.15
2022-08-28T13:58:31.673Z,3.38
2022-08-28T14:01:05.106Z,3.10
2022-08-28T14:03:36.337Z,2.85
2022-08-28T14:06:07.282Z,3.55
2022-08-28T14:08:38.051Z,3.20
2022-08-28T14:11:08.534Z,3.17
2022-08-28T14:13:47.409Z,3.30
2022-08-28T14:16:28.819Z,2.95
2022-08-28T14:19:04.130Z,2.90
2022-08-28T14:21:34.656Z,3.55
2022-08-28T14:24:05.382Z,2.78
2022-08-28T14:26:35.942Z,3.03
2022-08-28T14:29:07.512Z,2.88
2022-08-28T14:31:41.159Z,3.58
2022-08-28T14:34:12.428Z,2.70
2022-08-28T14:36:44.162Z,2.92
2022-08-28T14:39:15.959Z,2.88
2022-08-28T14:41:47.249Z,2.55
2022-08-28T14:44:18.216Z,2.35
2022-08-28T14:46:52.769Z,3.20
2022-08-28T14:49:28.316Z,3.03
2022-08-28T14:51:58.726Z,2.90
2022-08-28T14:54:29.621Z,2.83
2022-08-28T14:56:59.921Z,3.38
2022-08-28T14:59:31.233Z,2.85
2022-08-28T15:02:04.431Z,3.10
2022-08-28T15:04:38.075Z,3.10
2022-08-28T15:07:10.967Z,2.92
2022-08-28T15:09:43.367Z,2.67
2022-08-28T15:12:14.070Z,2.55
2022-08-28T15:14:54.682Z,3.05
2022-08-28T15:17:33.506Z,3.20
2022-08-28T15:20:04.968Z,3.08
2022-08-28T15:22:35.254Z,2.58
2022-08-28T15:25:05.981Z,2.58
2022-08-28T15:27:36.651Z,2.42
2022-08-28T15:30:07.619Z,2.47
2022-08-28T15:32:42.200Z,3.25
2022-08-28T15:35:13.139Z,2.70
2022-08-28T15:37:43.472Z,2.60
2022-08-28T15:40:26.682Z,2.78
2022-08-28T15:42:57.091Z,2.50
2022-08-28T15:45:27.444Z,2.80
2022-08-28T15:48:00.792Z,2.83
2022-08-28T15:50:31.092Z,2.13
2022-08-28T15:53:01.923Z,2.75
2022-08-28T15:55:32.492Z,2.47
2022-08-28T15:58:02.884Z,2.58
2022-08-28T16:00:34.043Z,2.22
2022-08-28T16:03:07.141Z,2.50
2022-08-28T16:05:40.763Z,2.83
2022-08-28T16:08:11.550Z,2.58
2022-08-28T16:10:41.899Z,2.55
2022-08-28T16:13:12.298Z,2.70
2022-08-28T16:15:42.675Z,2.45
2022-08-28T16:18:15.944Z,2.38
2022-08-28T16:20:47.139Z,2.45
2022-08-28T16:23:17.880Z,2.72
2022-08-28T16:25:48.150Z,2.63
2022-08-28T16:28:18.455Z,2.33
2022-08-28T16:30:48.451Z,2.83
2022-08-28T16:33:22.342Z,2.10
2022-08-28T16:35:54.866Z,2.63
2022-08-28T16:38:26.977Z,3.03
2022-08-28T16:40:57.307Z,2.72
2022-08-28T16:43:29.005Z,2.33
2022-08-28T16:45:59.865Z,2.75
2022-08-28T16:48:32.698Z,3.15
2022-08-28T16:51:02.715Z,2.47
2022-08-28T16:53:33.107Z,2.20
2022-08-28T16:56:03.310Z,2.53
2022-08-28T16:58:33.594Z,3.22
2022-08-28T17:01:04.791Z,2.65
2022-08-28T17:03:40.424Z,2.80
2022-08-28T17:06:14.448Z,2.50
2022-08-28T17:08:45.052Z,2.85
2022-08-28T17:11:15.785Z,2.67
2022-08-28T17:13:46.318Z,2.42
2022-08-28T17:16:16.633Z,2.83
2022-08-28T17:18:52.477Z,2.80
2022-08-28T17:21:35.722Z,2.85
2022-08-28T17:24:06.901Z,2.70
2022-08-28T17:26:37.298Z,2.85
2022-08-28T17:29:08.112Z,3.20
2022-08-28T17:31:38.475Z,2.90
2022-08-28T17:34:11.449Z,2.28
2022-08-28T17:36:43.042Z,3.00
2022-08-28T17:39:15.500Z,2.20
2022-08-28T17:41:46.170Z,3.00
2022-08-28T17:44:16.572Z,2.53
2022-08-28T17:46:46.643Z,2.95
2022-08-28T17:49:19.229Z,2.40
2022-08-28T17:51:49.233Z,2.47
2022-08-28T17:54:22.724Z,2.80
2022-08-28T17:56:54.456Z,3.10
2022-08-28T17:59:25.187Z,2.92
2022-08-28T18:01:55.637Z,2.50
2022-08-28T18:04:29.097Z,2.75
2022-08-28T18:06:59.411Z,3.00
2022-08-28T18:09:29.743Z,2.75
2022-08-28T18:12:00.018Z,3.05
2022-08-28T18:14:30.007Z,3.35
2022-08-28T18:17:00.291Z,3.42
2022-08-28T18:19:33.300Z,3.20
2022-08-28T18:22:03.600Z,3.95
2022-08-28T18:24:34.808Z,5.50
2022-08-28T18:27:05.161Z,5.10
2022-08-28T18:29:35.418Z,4.50
2022-08-28T18:32:06.208Z,4.57
2022-08-28T18:34:39.523Z,4.40
2022-08-28T18:37:09.814Z,3.35
2022-08-28T18:39:40.258Z,4.50
2022-08-28T18:42:12.632Z,3.58
2022-08-28T18:44:43.008Z,4.30
2022-08-28T18:47:13.575Z,4.30
2022-08-28T18:49:46.619Z,4.53
2022-08-28T18:52:16.865Z,4.68
2022-08-28T18:54:47.133Z,4.72
2022-08-28T18:57:18.613Z,4.60
2022-08-28T18:59:49.930Z,3.88
2022-08-28T19:02:20.425Z,4.78
2022-08-28T19:04:53.392Z,4.28
2022-08-28T19:07:23.843Z,5.47
2022-08-28T19:09:54.243Z,4.68
2022-08-28T19:12:24.629Z,4.60
2022-08-28T19:14:56.508Z,4.25
2022-08-28T19:17:27.062Z,4.32
2022-08-28T19:19:59.948Z,4.90
2022-08-28T19:22:30.205Z,4.33
2022-08-28T19:25:00.563Z,4.40
2022-08-28T19:27:30.848Z,3.83
2022-08-28T19:30:01.154Z,4.55
2022-08-28T19:32:31.480Z,4.50
2022-08-28T19:35:04.602Z,4.63
2022-08-28T19:37:34.890Z,4.25
2022-08-28T19:40:05.315Z,4.70
2022-08-28T19:42:36.077Z,5.38
2022-08-28T19:45:07.364Z,4.78
2022-08-28T19:47:37.727Z,4.97
2022-08-28T19:50:12.004Z,5.00
2022-08-28T19:52:43.194Z,4.95
2022-08-28T19:55:18.350Z,4.65
2022-08-28T19:57:49.605Z,5.07
2022-08-28T20:00:21.904Z,4.97
2022-08-28T20:02:52.568Z,4.40
2022-08-28T20:05:25.303Z,4.75
2022-08-28T20:07:55.611Z,4.20
2022-08-28T20:10:25.873Z,5.10
2022-08-28T20:12:56.534Z,4.70
2022-08-28T20:15:27.289Z,5.22
2022-08-28T20:17:57.865Z,5.63
2022-08-28T20:20:30.743Z,5.03
2022-08-28T20:23:00.989Z,5.10
2022-08-28T20:25:34.922Z,5.20
2022-08-28T20:28:05.595Z,5.50
2022-08-28T20:30:36.022Z,6.05
2022-08-28T20:33:06.444Z,5.75
2022-08-28T20:35:39.367Z,6.63
2022-08-28T20:38:11.042Z,5.43
2022-08-28T20:40:41.435Z,6.38
2022-08-28T20:43:11.760Z,5.68
2022-08-28T20:45:42.041Z,6.78
2022-08-28T20:48:12.441Z,6.30
2022-08-28T20:50:45.309Z,6.82
2022-08-28T20:53:15.610Z,6.22
2022-08-28T20:56:07.412Z,6.25
2022-08-28T20:58:37.769Z,6.28
2022-08-28T21:01:08.540Z,6.65
2022-08-28T21:03:38.826Z,6.15
2022-08-28T21:06:11.762Z,6.45
2022-08-28T21:08:42.424Z,6.80
2022-08-28T21:11:12.702Z,6.90
2022-08-28T21:13:43.025Z,6.90
2022-08-28T21:16:13.408Z,7.45
2022-08-28T21:18:59.265Z,6.93
2022-08-28T21:21:37.068Z,6.55
2022-08-28T21:24:10.310Z,6.63
2022-08-28T21:26:40.769Z,6.88
2022-08-28T21:29:13.998Z,6.40
2022-08-28T21:31:44.794Z,6.28
2022-08-28T21:34:15.544Z,6.90
2022-08-28T21:36:51.366Z,6.60
2022-08-28T21:39:23.163Z,7.20
2022-08-28T21:41:53.437Z,6.50
2022-08-28T21:44:25.220Z,6.93
2022-08-28T21:46:55.512Z,6.07
2022-08-28T21:49:26.107Z,6.22
2022-08-28T21:52:01.205Z,6.38
2022-08-28T21:54:31.504Z,5.85
2022-08-28T21:57:01.891Z,5.63
2022-08-28T21:59:38.068Z,5.95
2022-08-28T22:02:08.623Z,5.75
2022-08-28T22:04:39.006Z,5.93
2022-08-28T22:07:14.084Z,5.65
2022-08-28T22:09:44.560Z,6.10
2022-08-28T22:12:16.461Z,6.35
2022-08-28T22:14:46.723Z,5.72
2022-08-28T22:17:17.474Z,5.55
2022-08-28T22:19:47.806Z,5.72
2022-08-28T22:22:33.208Z,5.78
2022-08-28T22:25:03.345Z,6.32
2022-08-28T22:27:34.751Z,5.80
2022-08-28T22:30:05.016Z,6.55
2022-08-28T22:32:35.338Z,5.55
2022-08-28T22:35:05.398Z,6.28
2022-08-28T22:37:38.385Z,5.82
2022-08-28T22:40:13.434Z,6.10
2022-08-28T22:42:44.204Z,5.93
2022-08-28T22:45:15.499Z,6.00
2022-08-28T22:47:45.795Z,5.80
2022-08-28T22:50:15.767Z,6.32
2022-08-28T22:52:49.180Z,5.97
2022-08-28T22:55:19.836Z,7.25
2022-08-28T22:57:50.440Z,7.18
2022-08-28T23:00:23.941Z,6.13
2022-08-28T23:02:54.566Z,6.43
2022-08-28T23:05:25.328Z,6.20
2022-08-28T23:07:58.489Z,6.75
2022-08-28T23:10:48.588Z,6.30
2022-08-28T23:13:19.616Z,7.00
2022-08-28T23:15:50.334Z,7.70
2022-08-28T23:18:21.200Z,6.93
2022-08-28T23:20:51.569Z,7.45
2022-08-28T23:23:24.508Z,6.43
2022-08-28T23:25:54.801Z,6.43
2022-08-28T23:28:25.090Z,6.47
2022-08-28T23:30:55.372Z,6.40
2022-08-28T23:33:25.668Z,6.65
2022-08-28T23:35:56.138Z,6.45
2022-08-28T23:38:30.163Z,6.30
2022-08-28T23:41:00.530Z,6.35
2022-08-28T23:43:30.856Z,6.75
2022-08-28T23:46:01.220Z,7.30
2022-08-28T23:48:32.969Z,6.45
2022-08-28T23:51:03.243Z,7.05
2022-08-28T23:53:36.164Z,6.85
2022-08-28T23:56:06.807Z,7.05
2022-08-28T23:58:38.741Z,6.88
